createdAt,value
2017-03-03T00:00:54.629Z,0
2017-03-03T00:03:34.622Z,0
2017-03-03T00:04:47.918Z,0
2017-03-03T00:06:14.610Z,0
2017-03-03T00:07:27.887Z,0
2017-03-03T00:08:41.177Z,0
2017-03-03T00:10:08.441Z,0
2017-03-03T00:11:22.040Z,0
2017-03-03T00:12:35.326Z,0
2017-03-03T00:14:02.019Z,0
2017-03-03T00:15:15.328Z,0
2017-03-03T00:16:28.824Z,0
2017-03-03T00:17:42.129Z,0
2017-03-03T00:18:55.419Z,0
2017-03-03T00:20:08.986Z,0
2017-03-03T00:21:22.893Z,0
2017-03-03T00:22:36.590Z,0
2017-03-03T00:23:50.320Z,0
2017-03-03T00:25:04.217Z,0
2017-03-03T00:26:17.550Z,0
2017-03-03T00:27:31.447Z,0
2017-03-03T00:28:45.183Z,0
2017-03-03T00:30:13.032Z,0
2017-03-03T00:31:26.707Z,0
2017-03-03T00:32:40.400Z,0
2017-03-03T00:33:53.487Z,0
2017-03-03T00:35:07.007Z,0
2017-03-03T00:36:20.329Z,0
2017-03-03T00:37:33.722Z,0
2017-03-03T00:38:47.249Z,0
2017-03-03T00:40:00.756Z,0
2017-03-03T00:41:14.290Z,0
2017-03-03T00:42:27.826Z,0
2017-03-03T00:43:41.602Z,0
2017-03-03T00:44:55.148Z,0
2017-03-03T00:46:08.699Z,0
2017-03-03T00:47:22.228Z,0
2017-03-03T00:48:35.750Z,0
2017-03-03T00:49:49.234Z,0
2017-03-03T00:51:02.778Z,0
2017-03-03T00:52:16.291Z,0
2017-03-03T00:53:29.772Z,0
2017-03-03T00:54:43.241Z,0
2017-03-03T00:55:56.733Z,0
2017-03-03T00:57:10.222Z,0
2017-03-03T00:58:37.664Z,0
2017-03-03T00:59:51.227Z,0
2017-03-03T01:01:04.745Z,0
2017-03-03T01:02:18.285Z,0
2017-03-03T01:03:31.228Z,0
2017-03-03T01:04:45.150Z,0
2017-03-03T01:05:58.686Z,0
2017-03-03T01:07:12.194Z,0
2017-03-03T01:08:25.711Z,0
2017-03-03T01:09:38.647Z,0
2017-03-03T01:10:52.152Z,0
2017-03-03T01:12:19.608Z,0
2017-03-03T01:13:47.020Z,0
2017-03-03T01:14:59.964Z,0
2017-03-03T01:16:13.476Z,0
2017-03-03T01:17:26.969Z,0
2017-03-03T01:18:39.894Z,0
2017-03-03T01:21:20.452Z,0
2017-03-03T01:22:33.913Z,0
2017-03-03T01:23:47.388Z,0
2017-03-03T01:25:00.325Z,0
2017-03-03T01:26:13.794Z,0
2017-03-03T01:27:27.287Z,0
2017-03-03T01:28:40.786Z,0
2017-03-03T01:29:54.273Z,0
2017-03-03T01:31:07.690Z,0
2017-03-03T01:33:48.506Z,0
2017-03-03T01:35:01.261Z,0
2017-03-03T01:36:14.592Z,0
2017-03-03T01:37:28.228Z,0
2017-03-03T01:38:41.555Z,0
2017-03-03T01:39:54.876Z,0
2017-03-03T01:41:08.242Z,0
2017-03-03T01:42:21.763Z,0
2017-03-03T01:43:34.491Z,0
2017-03-03T01:44:46.665Z,0
2017-03-03T01:45:59.983Z,0
2017-03-03T01:47:13.303Z,0
2017-03-03T01:48:26.629Z,0
2017-03-03T01:49:39.394Z,0
2017-03-03T01:50:52.723Z,0
2017-03-03T01:52:06.041Z,0
2017-03-03T01:53:18.966Z,0
2017-03-03T01:54:32.286Z,0
2017-03-03T01:55:45.033Z,0
2017-03-03T01:56:58.342Z,0
2017-03-03T01:58:11.102Z,0
2017-03-03T01:59:24.609Z,0
2017-03-03T02:00:37.938Z,0
2017-03-03T02:01:51.255Z,0
2017-03-03T02:03:04.591Z,0
2017-03-03T02:04:16.986Z,0
2017-03-03T02:05:29.735Z,0
2017-03-03T02:06:43.085Z,0
2017-03-03T02:08:10.358Z,0
2017-03-03T02:09:23.670Z,0
2017-03-03T02:12:03.717Z,0
2017-03-03T02:13:17.028Z,0
2017-03-03T02:14:30.373Z,0
2017-03-03T02:15:43.714Z,0
2017-03-03T02:16:57.028Z,0
2017-03-03T02:18:10.312Z,0
2017-03-03T02:19:23.665Z,0
2017-03-03T02:20:36.993Z,0
2017-03-03T02:21:50.327Z,0
2017-03-03T02:23:03.072Z,0
2017-03-03T02:24:16.416Z,0
2017-03-03T02:25:29.769Z,0
2017-03-03T02:26:56.483Z,0
2017-03-03T02:28:09.827Z,0
2017-03-03T02:29:23.121Z,0
2017-03-03T02:30:50.429Z,0
2017-03-03T02:32:03.756Z,0
2017-03-03T02:33:17.058Z,0
2017-03-03T02:34:30.384Z,0
2017-03-03T02:35:43.994Z,0
2017-03-03T02:36:57.307Z,0
2017-03-03T02:38:10.815Z,0
2017-03-03T02:39:24.116Z,0
2017-03-03T02:40:37.734Z,0
2017-03-03T02:41:51.029Z,0
2017-03-03T02:43:03.775Z,0
2017-03-03T02:44:17.116Z,0
2017-03-03T02:45:30.416Z,0
2017-03-03T02:46:43.904Z,0
2017-03-03T02:47:57.229Z,0
2017-03-03T02:49:10.549Z,0
2017-03-03T02:50:37.816Z,0
2017-03-03T02:51:51.324Z,0
2017-03-03T02:53:04.711Z,0
2017-03-03T02:54:18.047Z,0
2017-03-03T02:55:31.343Z,0
2017-03-03T02:56:44.627Z,0
2017-03-03T02:57:57.967Z,0
2017-03-03T02:59:11.287Z,0
2017-03-03T03:00:24.586Z,0
2017-03-03T03:01:37.896Z,0
2017-03-03T03:02:51.212Z,0
2017-03-03T03:04:04.498Z,0
2017-03-03T03:05:31.211Z,0
2017-03-03T03:06:44.546Z,0
2017-03-03T03:07:57.881Z,0
2017-03-03T03:09:11.406Z,0
2017-03-03T03:10:24.729Z,0
2017-03-03T03:11:38.039Z,0
2017-03-03T03:12:51.339Z,0
2017-03-03T03:14:04.691Z,0
2017-03-03T03:15:18.009Z,0
2017-03-03T03:16:31.371Z,0
2017-03-03T03:17:44.706Z,0
2017-03-03T03:18:57.655Z,0
2017-03-03T03:20:10.967Z,0
2017-03-03T03:21:23.757Z,0
2017-03-03T03:22:36.530Z,0
2017-03-03T03:25:17.349Z,0
2017-03-03T03:26:30.675Z,0
2017-03-03T03:27:43.964Z,0
2017-03-03T03:28:56.901Z,0
2017-03-03T03:30:10.219Z,0
2017-03-03T03:33:04.786Z,0
2017-03-03T03:34:18.306Z,0
2017-03-03T03:35:31.638Z,0
2017-03-03T03:36:44.927Z,0
2017-03-03T03:37:57.645Z,0
2017-03-03T03:39:11.136Z,0
2017-03-03T03:40:38.385Z,0
2017-03-03T03:41:51.661Z,0
2017-03-03T03:43:04.951Z,0
2017-03-03T03:44:18.459Z,0
2017-03-03T03:45:31.757Z,0
2017-03-03T03:46:45.043Z,0
2017-03-03T03:47:57.767Z,0
2017-03-03T03:49:10.487Z,0
2017-03-03T03:50:23.783Z,0
2017-03-03T03:51:36.508Z,0
2017-03-03T03:52:49.799Z,0
2017-03-03T03:54:01.951Z,0
2017-03-03T03:55:15.567Z,0
2017-03-03T03:56:28.872Z,0
2017-03-03T03:57:41.595Z,0
2017-03-03T03:58:54.885Z,0
2017-03-03T04:00:07.795Z,0
2017-03-03T04:01:21.068Z,0
2017-03-03T04:02:34.342Z,0
2017-03-03T04:03:47.646Z,0
2017-03-03T04:05:14.898Z,0
2017-03-03T04:06:28.184Z,0
2017-03-03T04:07:40.901Z,0
2017-03-03T04:08:54.199Z,0
2017-03-03T04:10:07.501Z,0
2017-03-03T04:11:35.080Z,0
2017-03-03T04:13:02.336Z,0
2017-03-03T04:14:15.622Z,0
2017-03-03T04:15:28.892Z,0
2017-03-03T04:16:42.373Z,0
2017-03-03T04:17:55.664Z,0
2017-03-03T04:19:08.952Z,0
2017-03-03T04:21:49.715Z,0
2017-03-03T04:23:02.999Z,0
2017-03-03T04:24:16.267Z,0
2017-03-03T04:25:29.555Z,0
2017-03-03T04:26:42.833Z,0
2017-03-03T04:27:56.163Z,0
2017-03-03T04:29:09.460Z,0
2017-03-03T04:30:22.731Z,0
2017-03-03T04:31:34.884Z,0
2017-03-03T04:32:47.781Z,0
2017-03-03T04:34:01.277Z,0
2017-03-03T04:35:14.593Z,0
2017-03-03T04:36:27.880Z,0
2017-03-03T04:37:41.172Z,0
2017-03-03T04:38:54.446Z,0
2017-03-03T04:40:21.719Z,0
2017-03-03T04:41:34.995Z,0
2017-03-03T04:42:48.584Z,0
2017-03-03T04:44:01.856Z,0
2017-03-03T04:45:14.569Z,0
2017-03-03T04:46:41.828Z,0
2017-03-03T04:47:55.125Z,0
2017-03-03T04:49:08.436Z,0
2017-03-03T04:50:21.729Z,0
2017-03-03T04:51:35.015Z,0
2017-03-03T04:52:48.507Z,0
2017-03-03T04:54:01.790Z,0
2017-03-03T04:55:15.332Z,0
2017-03-03T04:56:28.625Z,0
2017-03-03T04:57:41.927Z,0
2017-03-03T04:58:55.508Z,0
2017-03-03T05:00:08.794Z,0
2017-03-03T05:02:49.354Z,0
2017-03-03T05:04:02.836Z,0
2017-03-03T05:05:16.121Z,0
2017-03-03T05:06:28.836Z,0
2017-03-03T05:07:41.556Z,0
2017-03-03T05:08:54.843Z,0
2017-03-03T05:10:07.563Z,0
2017-03-03T05:11:20.850Z,0
2017-03-03T05:12:34.128Z,0
2017-03-03T05:13:46.836Z,0
2017-03-03T05:15:00.307Z,0
2017-03-03T05:16:13.586Z,0
2017-03-03T05:17:26.891Z,0
2017-03-03T05:18:39.618Z,0
2017-03-03T05:19:53.091Z,0
2017-03-03T05:21:06.373Z,0
2017-03-03T05:22:19.646Z,0
2017-03-03T05:23:31.779Z,0
2017-03-03T05:24:45.066Z,0
2017-03-03T05:25:57.787Z,0
2017-03-03T05:27:10.536Z,0
2017-03-03T05:28:23.828Z,0
2017-03-03T05:29:37.108Z,0
2017-03-03T05:30:50.407Z,0
2017-03-03T05:32:03.684Z,0
2017-03-03T05:33:16.422Z,0
2017-03-03T05:34:29.729Z,0
2017-03-03T05:35:42.995Z,0
2017-03-03T05:36:56.481Z,0
2017-03-03T05:38:09.761Z,0
2017-03-03T05:39:23.027Z,0
2017-03-03T05:40:36.297Z,0
2017-03-03T05:41:49.890Z,0
2017-03-03T05:43:03.187Z,0
2017-03-03T05:44:16.483Z,0
2017-03-03T05:45:29.211Z,0
2017-03-03T05:46:41.915Z,0
2017-03-03T05:47:55.396Z,0
2017-03-03T05:49:08.679Z,0
2017-03-03T05:50:21.384Z,0
2017-03-03T05:51:34.107Z,0
2017-03-03T05:52:47.692Z,0
2017-03-03T05:54:00.973Z,0
2017-03-03T05:55:28.249Z,0
2017-03-03T05:56:55.513Z,0
2017-03-03T05:58:08.987Z,0
2017-03-03T05:59:22.273Z,0
2017-03-03T06:00:34.979Z,0
2017-03-03T06:01:47.680Z,0
2017-03-03T06:03:00.964Z,0
2017-03-03T06:04:13.706Z,0
2017-03-03T06:05:27.006Z,0
2017-03-03T06:06:40.309Z,0
2017-03-03T06:07:53.611Z,0
2017-03-03T06:09:07.093Z,0
2017-03-03T06:10:19.811Z,0
2017-03-03T06:11:33.085Z,0
2017-03-03T06:13:00.341Z,0
2017-03-03T06:14:12.479Z,0
2017-03-03T06:15:25.775Z,0
2017-03-03T06:16:39.046Z,0
2017-03-03T06:17:52.336Z,0
2017-03-03T06:19:05.912Z,0
2017-03-03T06:20:18.639Z,0
2017-03-03T06:21:31.350Z,0
2017-03-03T06:22:45.229Z,0
2017-03-03T06:23:58.513Z,0
2017-03-03T06:25:11.536Z,0
2017-03-03T06:26:24.801Z,0
2017-03-03T06:27:38.110Z,0
2017-03-03T06:28:51.380Z,0
2017-03-03T06:30:04.683Z,0
2017-03-03T06:31:17.981Z,0
2017-03-03T06:32:31.264Z,0
2017-03-03T06:33:58.551Z,0
2017-03-03T06:35:11.268Z,0
2017-03-03T06:36:24.532Z,0
2017-03-03T06:37:37.816Z,0
2017-03-03T06:38:51.093Z,0
2017-03-03T06:40:04.559Z,0
2017-03-03T06:41:17.863Z,0
2017-03-03T06:42:30.588Z,0
2017-03-03T06:43:43.855Z,0
2017-03-03T06:44:57.138Z,0
2017-03-03T06:46:10.752Z,0
2017-03-03T06:47:24.047Z,0
2017-03-03T06:48:36.759Z,0
2017-03-03T06:49:50.049Z,0
2017-03-03T06:51:03.525Z,0
2017-03-03T06:52:16.235Z,0
2017-03-03T06:53:29.502Z,0
2017-03-03T06:54:42.781Z,0
2017-03-03T06:55:56.080Z,0
2017-03-03T06:57:09.673Z,0
2017-03-03T06:58:22.979Z,0
2017-03-03T06:59:50.237Z,0
2017-03-03T07:01:03.509Z,0
2017-03-03T07:02:16.806Z,0
2017-03-03T07:03:29.506Z,0
2017-03-03T07:04:42.206Z,0
2017-03-03T07:05:55.520Z,0
2017-03-03T07:07:09.121Z,0
2017-03-03T07:08:21.830Z,0
2017-03-03T07:09:34.535Z,0
2017-03-03T07:10:47.841Z,0
2017-03-03T07:12:01.125Z,0
2017-03-03T07:13:14.412Z,0
2017-03-03T07:14:27.692Z,0
2017-03-03T07:15:40.961Z,0
2017-03-03T07:16:54.254Z,0
2017-03-03T07:18:07.546Z,0
2017-03-03T07:19:20.277Z,0
2017-03-03T07:20:33.552Z,0
2017-03-03T07:21:46.839Z,0
2017-03-03T07:23:00.125Z,0
2017-03-03T07:24:13.139Z,0
2017-03-03T07:25:26.449Z,0
2017-03-03T07:26:39.756Z,0
2017-03-03T07:27:52.470Z,0
2017-03-03T07:29:05.943Z,0
2017-03-03T07:30:19.221Z,0
2017-03-03T07:31:31.937Z,0
2017-03-03T07:32:45.227Z,0
2017-03-03T07:35:40.038Z,0
2017-03-03T07:36:52.736Z,0
2017-03-03T07:38:06.011Z,0
2017-03-03T07:39:18.755Z,0
2017-03-03T07:40:32.061Z,0
2017-03-03T07:41:45.344Z,0
2017-03-03T07:42:58.070Z,0
2017-03-03T07:44:11.353Z,0
2017-03-03T07:45:24.279Z,0
2017-03-03T07:46:36.996Z,0
2017-03-03T07:48:04.268Z,0
2017-03-03T07:49:17.546Z,0
2017-03-03T07:50:30.465Z,0
2017-03-03T07:51:43.174Z,0
2017-03-03T07:52:56.438Z,0
2017-03-03T07:54:09.734Z,0
2017-03-03T07:55:22.433Z,0
2017-03-03T07:56:49.697Z,0
2017-03-03T07:58:02.969Z,0
2017-03-03T07:59:15.682Z,0
2017-03-03T08:00:28.957Z,0
2017-03-03T08:01:42.553Z,0
2017-03-03T08:02:55.828Z,0
2017-03-03T08:04:09.095Z,0
2017-03-03T08:05:22.375Z,0
2017-03-03T08:06:35.844Z,0
2017-03-03T08:07:49.127Z,0
2017-03-03T08:09:02.414Z,0
2017-03-03T08:10:15.149Z,0
2017-03-03T08:11:27.865Z,0
2017-03-03T08:12:41.334Z,0
2017-03-03T08:13:54.619Z,0
2017-03-03T08:15:07.901Z,0
2017-03-03T08:16:21.193Z,0
2017-03-03T08:17:34.682Z,0
2017-03-03T08:18:47.983Z,0
2017-03-03T08:20:01.273Z,0
2017-03-03T08:21:14.561Z,0
2017-03-03T08:22:27.847Z,0
2017-03-03T08:23:41.312Z,0
2017-03-03T08:25:21.413Z,0
2017-03-03T08:26:34.134Z,0
2017-03-03T08:27:47.409Z,0
2017-03-03T08:29:00.678Z,0
2017-03-03T08:30:13.952Z,0
2017-03-03T08:31:26.700Z,0
2017-03-03T08:32:39.990Z,0
2017-03-03T08:33:53.275Z,0
2017-03-03T08:35:06.548Z,0
2017-03-03T08:36:19.263Z,0
2017-03-03T08:37:32.547Z,0
2017-03-03T08:38:45.825Z,0
2017-03-03T08:39:59.392Z,0
2017-03-03T08:41:12.661Z,0
2017-03-03T08:42:25.962Z,0
2017-03-03T08:43:39.249Z,0
2017-03-03T08:44:52.525Z,0
2017-03-03T08:46:05.811Z,0
2017-03-03T08:47:19.098Z,0
2017-03-03T08:48:31.798Z,0
2017-03-03T08:49:44.529Z,0
2017-03-03T08:50:57.823Z,0
2017-03-03T08:52:11.116Z,0
2017-03-03T08:53:23.822Z,0
2017-03-03T08:54:37.112Z,0
2017-03-03T08:55:50.592Z,0
2017-03-03T08:57:03.867Z,0
2017-03-03T08:58:17.166Z,0
2017-03-03T08:59:30.449Z,0
2017-03-03T09:00:43.170Z,0
2017-03-03T09:01:56.756Z,0
2017-03-03T09:03:10.046Z,0
2017-03-03T09:04:23.353Z,0
2017-03-03T09:05:50.602Z,0
2017-03-03T09:07:04.083Z,0
2017-03-03T09:08:17.370Z,0
2017-03-03T09:09:30.106Z,0
2017-03-03T09:10:42.805Z,0
2017-03-03T09:11:56.286Z,0
2017-03-03T09:13:09.561Z,0
2017-03-03T09:14:22.850Z,0
2017-03-03T09:15:35.566Z,0
2017-03-03T09:16:48.850Z,0
2017-03-03T09:18:01.565Z,0
2017-03-03T09:19:14.847Z,0
2017-03-03T09:20:27.549Z,0
2017-03-03T09:21:40.846Z,0
2017-03-03T09:22:54.145Z,0
2017-03-03T09:24:07.427Z,0
2017-03-03T09:25:20.704Z,0
2017-03-03T09:26:33.997Z,0
2017-03-03T09:27:46.721Z,0
2017-03-03T09:29:00.188Z,0
2017-03-03T09:30:12.898Z,0
2017-03-03T09:31:25.036Z,0
2017-03-03T09:32:37.734Z,0
2017-03-03T09:34:05.014Z,0
2017-03-03T09:35:17.726Z,0
2017-03-03T09:36:31.008Z,0
2017-03-03T09:37:44.301Z,0
2017-03-03T09:38:57.013Z,0
2017-03-03T09:40:10.494Z,0
2017-03-03T09:41:23.197Z,0
2017-03-03T09:42:35.902Z,0
2017-03-03T09:43:48.650Z,0
2017-03-03T09:45:01.925Z,0
2017-03-03T09:46:14.086Z,0
2017-03-03T09:47:26.226Z,0
2017-03-03T09:48:38.939Z,0
2017-03-03T09:49:52.222Z,0
2017-03-03T09:51:05.495Z,0
2017-03-03T09:52:32.196Z,0
2017-03-03T09:53:45.476Z,5
2017-03-03T09:54:58.753Z,5
2017-03-03T09:56:12.040Z,5
2017-03-03T09:57:24.767Z,5
2017-03-03T09:58:37.491Z,5
2017-03-03T09:59:50.777Z,5
2017-03-03T10:01:04.077Z,5
2017-03-03T10:02:17.372Z,5
2017-03-03T10:03:30.660Z,5
2017-03-03T10:04:43.466Z,5
2017-03-03T10:05:56.790Z,5
2017-03-03T10:07:09.505Z,5
2017-03-03T10:08:22.810Z,5
2017-03-03T10:09:50.152Z,5
2017-03-03T10:11:03.463Z,5
2017-03-03T10:12:16.766Z,5
2017-03-03T10:13:30.066Z,5
2017-03-03T10:14:42.780Z,5
2017-03-03T10:15:55.531Z,5
2017-03-03T10:17:09.018Z,5
2017-03-03T10:18:22.317Z,5
2017-03-03T10:19:49.568Z,5
2017-03-03T10:21:16.841Z,5
2017-03-03T10:22:30.306Z,5
2017-03-03T10:23:43.600Z,5
2017-03-03T10:24:56.911Z,5
2017-03-03T10:26:10.190Z,5
2017-03-03T10:27:23.662Z,5
2017-03-03T10:28:36.940Z,5
2017-03-03T10:29:49.645Z,5
2017-03-03T10:31:03.138Z,5
2017-03-03T10:32:16.484Z,5
2017-03-03T10:33:29.981Z,5
2017-03-03T10:36:10.514Z,5
2017-03-03T10:37:23.799Z,5
2017-03-03T10:38:37.077Z,5
2017-03-03T10:39:49.781Z,5
2017-03-03T10:41:03.072Z,5
2017-03-03T10:42:16.371Z,5
2017-03-03T10:43:29.666Z,5
2017-03-03T10:44:42.406Z,5
2017-03-03T10:46:09.678Z,5
2017-03-03T10:47:22.970Z,5
2017-03-03T10:48:36.255Z,10
2017-03-03T10:49:49.529Z,10
2017-03-03T10:51:02.813Z,10
2017-03-03T10:52:16.083Z,10
2017-03-03T10:53:29.378Z,10
2017-03-03T10:54:56.649Z,10
2017-03-03T10:56:09.963Z,10
2017-03-03T10:57:37.207Z,10
2017-03-03T10:58:49.940Z,10
2017-03-03T11:00:02.114Z,10
2017-03-03T11:01:15.399Z,10
2017-03-03T11:02:28.678Z,10
2017-03-03T11:03:41.953Z,10
2017-03-03T11:04:55.231Z,10
2017-03-03T11:06:08.512Z,10
2017-03-03T11:07:21.228Z,10
2017-03-03T11:08:34.519Z,10
2017-03-03T11:09:47.926Z,10
2017-03-03T11:11:01.057Z,10
2017-03-03T11:12:14.529Z,10
2017-03-03T11:13:27.313Z,10
2017-03-03T11:14:40.624Z,10
2017-03-03T11:15:54.124Z,10
2017-03-03T11:17:07.468Z,10
2017-03-03T11:18:20.839Z,10
2017-03-03T11:19:33.833Z,10
2017-03-03T11:20:47.341Z,10
2017-03-03T11:22:01.298Z,10
2017-03-03T11:23:14.836Z,10
2017-03-03T11:24:28.364Z,10
2017-03-03T11:27:09.000Z,10
2017-03-03T11:28:22.288Z,10
2017-03-03T11:29:35.574Z,10
2017-03-03T11:30:48.861Z,10
2017-03-03T11:32:02.137Z,10
2017-03-03T11:33:15.442Z,10
2017-03-03T11:34:28.725Z,10
2017-03-03T11:35:41.433Z,10
2017-03-03T11:36:54.705Z,10
2017-03-03T11:38:08.007Z,10
2017-03-03T11:39:21.323Z,15
2017-03-03T11:40:34.040Z,15
2017-03-03T11:43:28.767Z,15
2017-03-03T11:44:40.903Z,20
2017-03-03T11:45:54.191Z,20
2017-03-03T11:47:07.465Z,20
2017-03-03T11:48:20.747Z,20
2017-03-03T11:49:47.449Z,20
2017-03-03T11:51:00.736Z,20
2017-03-03T11:52:13.443Z,25
2017-03-03T11:53:26.743Z,25
2017-03-03T11:54:40.042Z,25
2017-03-03T11:55:53.351Z,30
2017-03-03T11:57:06.623Z,30
2017-03-03T11:58:19.905Z,30
2017-03-03T11:59:32.617Z,30
2017-03-03T12:00:45.908Z,30
2017-03-03T12:01:59.211Z,30
2017-03-03T12:03:12.500Z,30
2017-03-03T12:04:25.773Z,30
2017-03-03T12:05:37.906Z,30
2017-03-03T12:06:50.613Z,30
2017-03-03T12:08:03.919Z,25
2017-03-03T12:10:43.912Z,25
2017-03-03T12:11:57.198Z,25
2017-03-03T12:13:38.439Z,25
2017-03-03T12:14:51.746Z,25
2017-03-03T12:16:05.029Z,25
2017-03-03T12:17:18.315Z,25
2017-03-03T12:18:31.040Z,25
2017-03-03T12:19:44.336Z,25
2017-03-03T12:20:57.628Z,25
2017-03-03T12:22:10.357Z,25
2017-03-03T12:23:23.084Z,25
2017-03-03T12:24:36.367Z,20
2017-03-03T12:26:03.634Z,20
2017-03-03T12:27:16.927Z,20
2017-03-03T12:28:30.221Z,20
2017-03-03T12:29:43.718Z,20
2017-03-03T12:31:10.999Z,20
2017-03-03T12:32:24.287Z,20
2017-03-03T12:33:51.537Z,20
2017-03-03T12:35:05.054Z,25
2017-03-03T12:36:18.108Z,25
2017-03-03T12:37:31.488Z,25
2017-03-03T12:38:44.803Z,30
2017-03-03T12:39:58.135Z,30
2017-03-03T12:41:11.826Z,35
2017-03-03T12:42:25.245Z,35
2017-03-03T12:43:38.013Z,35
2017-03-03T12:44:51.392Z,35
2017-03-03T12:46:04.097Z,35
2017-03-03T12:47:17.369Z,35
2017-03-03T12:48:44.621Z,35
2017-03-03T12:49:57.904Z,35
2017-03-03T12:51:10.610Z,35
2017-03-03T12:52:23.891Z,35
2017-03-03T12:53:37.160Z,35
2017-03-03T12:54:50.441Z,35
2017-03-03T12:56:03.718Z,35
2017-03-03T12:57:17.010Z,35
2017-03-03T12:58:29.739Z,35
2017-03-03T12:59:41.873Z,35
2017-03-03T13:00:55.160Z,35
2017-03-03T13:02:08.447Z,35
2017-03-03T13:03:20.594Z,35
2017-03-03T13:04:33.307Z,35
2017-03-03T13:05:46.572Z,30
2017-03-03T13:06:59.859Z,30
2017-03-03T13:08:13.334Z,30
2017-03-03T13:09:26.616Z,30
2017-03-03T13:10:38.771Z,30
2017-03-03T13:11:52.270Z,30
2017-03-03T13:13:05.545Z,30
2017-03-03T13:14:18.311Z,35
2017-03-03T13:15:31.083Z,35
2017-03-03T13:16:44.373Z,35
2017-03-03T13:17:57.663Z,35
2017-03-03T13:19:10.405Z,35
2017-03-03T13:20:23.740Z,35
2017-03-03T13:21:37.040Z,35
2017-03-03T13:22:50.341Z,35
2017-03-03T13:24:03.651Z,30
2017-03-03T13:25:16.953Z,30
2017-03-03T13:26:29.668Z,30
2017-03-03T13:27:42.968Z,30
2017-03-03T13:28:56.243Z,35
2017-03-03T13:30:09.546Z,35
2017-03-03T13:31:36.809Z,35
2017-03-03T13:32:50.088Z,35
2017-03-03T13:34:03.372Z,35
2017-03-03T13:35:16.845Z,30
2017-03-03T13:36:30.127Z,30
2017-03-03T13:37:43.430Z,30
2017-03-03T13:38:56.151Z,30
2017-03-03T13:40:23.711Z,25
2017-03-03T13:41:37.037Z,25
2017-03-03T13:42:49.780Z,25
2017-03-03T13:44:03.087Z,20
2017-03-03T13:45:16.400Z,20
2017-03-03T13:46:29.416Z,20
2017-03-03T13:47:42.726Z,20
2017-03-03T13:48:56.036Z,25
2017-03-03T13:50:08.836Z,25
2017-03-03T13:51:21.908Z,25
2017-03-03T13:52:35.214Z,25
2017-03-03T13:53:47.974Z,25
2017-03-03T13:55:14.757Z,25
2017-03-03T13:56:26.960Z,30
2017-03-03T13:57:39.682Z,30
2017-03-03T13:58:52.972Z,30
2017-03-03T14:00:05.686Z,30
2017-03-03T14:01:18.957Z,30
2017-03-03T14:02:32.288Z,30
2017-03-03T14:03:45.064Z,35
2017-03-03T14:04:58.444Z,35
2017-03-03T14:06:11.804Z,35
2017-03-03T14:07:39.096Z,35
2017-03-03T14:10:33.807Z,35
2017-03-03T14:11:47.084Z,35
2017-03-03T14:13:00.558Z,35
2017-03-03T14:14:13.268Z,35
2017-03-03T14:15:25.990Z,35
2017-03-03T14:16:38.702Z,35
2017-03-03T14:17:51.990Z,35
2017-03-03T14:19:05.301Z,35
2017-03-03T14:20:18.594Z,35
2017-03-03T14:21:30.754Z,35
2017-03-03T14:22:44.036Z,35
2017-03-03T14:23:56.953Z,35
2017-03-03T14:25:10.231Z,35
2017-03-03T14:26:23.624Z,35
2017-03-03T14:27:36.916Z,40
2017-03-03T14:28:50.215Z,40
2017-03-03T14:30:04.084Z,40
2017-03-03T14:31:17.370Z,35
2017-03-03T14:32:30.652Z,40
2017-03-03T14:33:43.383Z,40
2017-03-03T14:34:56.655Z,40
2017-03-03T14:36:09.358Z,40
2017-03-03T14:39:02.726Z,45
2017-03-03T14:41:43.322Z,45
2017-03-03T14:42:56.598Z,45
2017-03-03T14:44:09.891Z,45
2017-03-03T14:45:37.190Z,55
2017-03-03T14:46:50.489Z,65
2017-03-03T14:48:03.191Z,55
2017-03-03T14:49:30.456Z,50
2017-03-03T14:50:44.060Z,50
2017-03-03T14:51:57.367Z,55
2017-03-03T14:53:10.644Z,65
2017-03-03T14:54:23.933Z,60
2017-03-03T14:55:37.233Z,60
2017-03-03T14:56:50.513Z,55
2017-03-03T14:58:02.663Z,50
2017-03-03T14:59:15.950Z,55
2017-03-03T15:00:29.247Z,50
2017-03-03T15:01:42.533Z,55
2017-03-03T15:03:09.220Z,55
2017-03-03T15:04:22.504Z,60
2017-03-03T15:05:35.795Z,55
2017-03-03T15:06:48.826Z,60
2017-03-03T15:08:02.322Z,60
2017-03-03T15:09:15.039Z,55
2017-03-03T15:10:27.210Z,55
2017-03-03T15:11:40.682Z,55
2017-03-03T15:12:53.969Z,55
2017-03-03T15:14:07.260Z,50
2017-03-03T15:15:20.549Z,50
2017-03-03T15:16:33.862Z,45
2017-03-03T15:17:47.189Z,45
2017-03-03T15:19:00.480Z,45
2017-03-03T15:20:13.771Z,45
2017-03-03T15:21:26.484Z,45
2017-03-03T15:22:39.417Z,45
2017-03-03T15:23:52.716Z,45
2017-03-03T15:25:06.008Z,45
2017-03-03T15:26:18.724Z,45
2017-03-03T15:27:32.010Z,50
2017-03-03T15:28:44.753Z,50
2017-03-03T15:29:58.022Z,55
2017-03-03T15:31:10.752Z,55
2017-03-03T15:32:24.037Z,60
2017-03-03T15:33:51.316Z,50
2017-03-03T15:35:18.561Z,50
2017-03-03T15:36:31.852Z,45
2017-03-03T15:37:45.135Z,40
2017-03-03T15:38:57.846Z,50
2017-03-03T15:40:25.104Z,50
2017-03-03T15:41:38.403Z,60
2017-03-03T15:42:51.716Z,55
2017-03-03T15:44:05.303Z,60
2017-03-03T15:45:18.023Z,60
2017-03-03T15:46:45.293Z,50
2017-03-03T15:47:58.570Z,35
2017-03-03T15:49:11.857Z,60
2017-03-03T15:50:24.018Z,45
2017-03-03T15:51:36.735Z,55
2017-03-03T15:52:49.460Z,55
2017-03-03T15:54:02.760Z,55
2017-03-03T15:55:16.052Z,30
2017-03-03T15:56:28.780Z,35
2017-03-03T15:57:42.066Z,55
2017-03-03T15:59:09.541Z,50
2017-03-03T16:00:22.846Z,50
2017-03-03T16:01:36.144Z,35
2017-03-03T16:02:49.422Z,50
2017-03-03T16:04:02.735Z,50
2017-03-03T16:05:15.688Z,50
2017-03-03T16:06:29.034Z,40
2017-03-03T16:07:42.395Z,55
2017-03-03T16:09:09.785Z,40
2017-03-03T16:10:23.403Z,40
2017-03-03T16:11:35.674Z,45
2017-03-03T16:12:48.457Z,50
2017-03-03T16:14:01.748Z,50
2017-03-03T16:15:15.326Z,40
2017-03-03T16:16:42.030Z,35
2017-03-03T16:17:55.314Z,50
2017-03-03T16:19:08.623Z,45
2017-03-03T16:20:21.909Z,35
2017-03-03T16:21:35.209Z,45
2017-03-03T16:22:48.531Z,40
2017-03-03T16:24:01.831Z,35
2017-03-03T16:25:15.105Z,50
2017-03-03T16:26:42.375Z,40
2017-03-03T16:27:55.103Z,40
2017-03-03T16:29:08.403Z,40
2017-03-03T16:30:21.907Z,45
2017-03-03T16:31:34.624Z,40
2017-03-03T16:33:01.875Z,40
2017-03-03T16:34:15.171Z,40
2017-03-03T16:35:28.459Z,35
2017-03-03T16:36:41.749Z,35
2017-03-03T16:37:54.481Z,40
2017-03-03T16:40:34.759Z,40
2017-03-03T16:41:48.062Z,40
2017-03-03T16:43:15.321Z,40
2017-03-03T16:45:55.911Z,40
2017-03-03T16:47:09.186Z,45
2017-03-03T16:48:22.498Z,45
2017-03-03T16:49:35.785Z,45
2017-03-03T16:50:49.083Z,45
2017-03-03T16:52:01.227Z,45
2017-03-03T16:53:14.552Z,45
2017-03-03T16:54:27.849Z,45
2017-03-03T16:55:41.141Z,45
2017-03-03T16:56:54.741Z,45
2017-03-03T16:58:07.550Z,40
2017-03-03T16:59:20.838Z,45
2017-03-03T17:00:34.136Z,45
2017-03-03T17:01:47.715Z,45
2017-03-03T17:03:00.486Z,45
2017-03-03T17:04:13.772Z,40
2017-03-03T17:05:27.070Z,40
2017-03-03T17:06:40.392Z,35
2017-03-03T17:07:53.674Z,40
2017-03-03T17:09:06.960Z,40
2017-03-03T17:10:20.242Z,40
2017-03-03T17:11:47.536Z,40
2017-03-03T17:13:01.040Z,40
2017-03-03T17:14:14.319Z,35
2017-03-03T17:15:27.595Z,40
2017-03-03T17:16:41.491Z,40
2017-03-03T17:17:54.796Z,35
2017-03-03T17:19:21.482Z,40
2017-03-03T17:20:34.206Z,35
2017-03-03T17:21:47.490Z,40
2017-03-03T17:23:00.773Z,35
2017-03-03T17:24:14.052Z,35
2017-03-03T17:25:27.341Z,35
2017-03-03T17:26:40.624Z,30
2017-03-03T17:27:53.927Z,30
2017-03-03T17:29:08.011Z,30
2017-03-03T17:30:21.339Z,30
2017-03-03T17:31:34.056Z,35
2017-03-03T17:32:46.769Z,35
2017-03-03T17:34:00.067Z,35
2017-03-03T17:35:13.371Z,35
2017-03-03T17:36:26.657Z,35
2017-03-03T17:37:39.944Z,35
2017-03-03T17:38:53.261Z,35
2017-03-03T17:40:05.993Z,35
2017-03-03T17:41:19.274Z,35
2017-03-03T17:42:32.582Z,35
2017-03-03T17:43:45.885Z,30
2017-03-03T17:44:59.437Z,35
2017-03-03T17:46:12.736Z,35
2017-03-03T17:47:24.881Z,35
2017-03-03T17:48:38.194Z,30
2017-03-03T17:49:51.488Z,30
2017-03-03T17:51:05.087Z,30
2017-03-03T17:52:17.805Z,30
2017-03-03T17:53:31.089Z,30
2017-03-03T17:54:44.367Z,30
2017-03-03T17:55:57.955Z,30
2017-03-03T17:57:11.260Z,30
2017-03-03T17:58:23.974Z,30
2017-03-03T17:59:50.675Z,30
2017-03-03T18:01:03.960Z,30
2017-03-03T18:02:17.244Z,30
2017-03-03T18:03:30.565Z,30
2017-03-03T18:04:43.298Z,25
2017-03-03T18:05:56.575Z,25
2017-03-03T18:07:09.889Z,25
2017-03-03T18:08:23.161Z,25
2017-03-03T18:09:50.462Z,25
2017-03-03T18:11:03.750Z,25
2017-03-03T18:13:43.973Z,25
2017-03-03T18:15:11.429Z,25
2017-03-03T18:16:38.694Z,25
2017-03-03T18:17:51.844Z,25
2017-03-03T18:19:18.546Z,20
2017-03-03T18:20:32.281Z,20
2017-03-03T18:21:45.788Z,20
2017-03-03T18:23:14.092Z,20
2017-03-03T18:24:27.486Z,20
2017-03-03T18:25:40.781Z,20
2017-03-03T18:26:53.526Z,20
2017-03-03T18:28:20.789Z,20
2017-03-03T18:29:34.083Z,20
2017-03-03T18:30:47.374Z,20